sensor_id;sensor_type;location;lat;lon;timestamp;pressure;altitude;pressure_sealevel;temperature;humidity
16331;BME280;8275;48.206;16.340;2023-03-01T00:01:49;100293.09;;;6.89;33.64
16331;BME280;8275;48.206;16.340;2023-03-01T00:04:17;100287.84;;;6.88;33.53
16331;BME280;8275;48.206;16.340;2023-03-01T00:06:47;100288.66;;;6.88;33.56
16331;BME280;8275;48.206;16.340;2023-03-01T00:09:16;100289.72;;;6.87;33.93
16331;BME280;8275;48.206;16.340;2023-03-01T00:11:45;100286.16;;;6.87;34.23
16331;BME280;8275;48.206;16.340;2023-03-01T00:14:15;100294.56;;;6.85;34.26
16331;BME280;8275;48.206;16.340;2023-03-01T00:16:45;100287.41;;;6.84;33.95
16331;BME280;8275;48.206;16.340;2023-03-01T00:19:16;100287.63;;;6.83;33.60
16331;BME280;8275;48.206;16.340;2023-03-01T00:21:47;100276.97;;;6.81;34.04
16331;BME280;8275;48.206;16.340;2023-03-01T00:24:16;100281.56;;;6.81;34.51
16331;BME280;8275;48.206;16.340;2023-03-01T00:26:44;100279.03;;;6.79;33.86
16331;BME280;8275;48.206;16.340;2023-03-01T00:29:13;100280.94;;;6.79;33.79
16331;BME280;8275;48.206;16.340;2023-03-01T00:31:42;100284.69;;;6.78;33.78
16331;BME280;8275;48.206;16.340;2023-03-01T00:34:10;100279.25;;;6.78;33.96
16331;BME280;8275;48.206;16.340;2023-03-01T00:36:39;100289.28;;;6.77;34.18
16331;BME280;8275;48.206;16.340;2023-03-01T00:39:12;100286.78;;;6.76;34.60
16331;BME280;8275;48.206;16.340;2023-03-01T00:41:42;100283.22;;;6.75;34.25
16331;BME280;8275;48.206;16.340;2023-03-01T00:44:11;100278.00;;;6.74;34.00
16331;BME280;8275;48.206;16.340;2023-03-01T00:46:39;100270.84;;;6.73;34.52
16331;BME280;8275;48.206;16.340;2023-03-01T00:49:08;100270.84;;;6.73;34.00
16331;BME280;8275;48.206;16.340;2023-03-01T00:51:36;100268.34;;;6.71;33.99
16331;BME280;8275;48.206;16.340;2023-03-01T00:54:09;100267.50;;;6.71;34.31
16331;BME280;8275;48.206;16.340;2023-03-01T00:56:37;100257.66;;;6.70;34.01
16331;BME280;8275;48.206;16.340;2023-03-01T00:59:06;100264.16;;;6.69;34.50
16331;BME280;8275;48.206;16.340;2023-03-01T01:01:34;100254.50;;;6.66;34.38
16331;BME280;8275;48.206;16.340;2023-03-01T01:04:06;100255.56;;;6.65;34.11
16331;BME280;8275;48.206;16.340;2023-03-01T01:06:37;100249.28;;;6.65;34.04
16331;BME280;8275;48.206;16.340;2023-03-01T01:09:08;100258.47;;;6.64;34.53
16331;BME280;8275;48.206;16.340;2023-03-01T01:11:45;100261.41;;;6.62;34.69
16331;BME280;8275;48.206;16.340;2023-03-01T01:14:15;100260.78;;;6.60;34.36
16331;BME280;8275;48.206;16.340;2023-03-01T01:16:44;100250.09;;;6.59;34.09
16331;BME280;8275;48.206;16.340;2023-03-01T01:19:12;100257.22;;;6.60;34.31
16331;BME280;8275;48.206;16.340;2023-03-01T01:21:41;100257.44;;;6.58;34.60
16331;BME280;8275;48.206;16.340;2023-03-01T01:24:12;100252.19;;;6.57;34.23
16331;BME280;8275;48.206;16.340;2023-03-01T01:26:41;100257.63;;;6.57;34.75
16331;BME280;8275;48.206;16.340;2023-03-01T01:29:10;100260.97;;;6.59;34.83
16331;BME280;8275;48.206;16.340;2023-03-01T01:31:41;100246.13;;;6.61;35.02
16331;BME280;8275;48.206;16.340;2023-03-01T01:34:15;100239.22;;;6.65;35.13
16331;BME280;8275;48.206;16.340;2023-03-01T01:36:47;100240.06;;;6.72;34.22
16331;BME280;8275;48.206;16.340;2023-03-01T01:39:17;100236.28;;;6.80;35.08
16331;BME280;8275;48.206;16.340;2023-03-01T01:41:46;100228.75;;;6.88;34.46
16331;BME280;8275;48.206;16.340;2023-03-01T01:44:19;100226.06;;;6.95;34.56
16331;BME280;8275;48.206;16.340;2023-03-01T01:46:53;100240.06;;;7.05;34.76
16331;BME280;8275;48.206;16.340;2023-03-01T01:49:30;100226.88;;;7.15;35.14
16331;BME280;8275;48.206;16.340;2023-03-01T01:52:09;100222.03;;;7.24;34.97
16331;BME280;8275;48.206;16.340;2023-03-01T01:54:44;100219.91;;;7.32;35.09
16331;BME280;8275;48.206;16.340;2023-03-01T01:57:18;100225.16;;;7.40;34.61
16331;BME280;8275;48.206;16.340;2023-03-01T01:59:52;100227.03;;;7.46;34.83
16331;BME280;8275;48.206;16.340;2023-03-01T02:02:22;100228.06;;;7.52;34.79
16331;BME280;8275;48.206;16.340;2023-03-01T02:04:58;100227.44;;;7.56;34.68
16331;BME280;8275;48.206;16.340;2023-03-01T02:07:31;100216.72;;;7.61;34.68
16331;BME280;8275;48.206;16.340;2023-03-01T02:10:03;100206.44;;;7.63;34.70
16331;BME280;8275;48.206;16.340;2023-03-01T02:12:32;100207.69;;;7.67;34.35
16331;BME280;8275;48.206;16.340;2023-03-01T02:15:02;100200.97;;;7.70;34.19
16331;BME280;8275;48.206;16.340;2023-03-01T02:17:31;100203.03;;;7.74;34.61
16331;BME280;8275;48.206;16.340;2023-03-01T02:20:12;100208.06;;;7.77;34.59
16331;BME280;8275;48.206;16.340;2023-03-01T02:22:45;100214.75;;;7.82;34.61
16331;BME280;8275;48.206;16.340;2023-03-01T02:25:30;100214.34;;;7.85;34.32
16331;BME280;8275;48.206;16.340;2023-03-01T02:28:10;100213.06;;;7.87;34.25
16331;BME280;8275;48.206;16.340;2023-03-01T02:30:43;100210.75;;;7.91;34.50
16331;BME280;8275;48.206;16.340;2023-03-01T02:33:27;100206.75;;;7.93;34.36
16331;BME280;8275;48.206;16.340;2023-03-01T02:35:56;100214.50;;;7.96;34.31
16331;BME280;8275;48.206;16.340;2023-03-01T02:38:25;100209.66;;;7.98;34.49
16331;BME280;8275;48.206;16.340;2023-03-01T02:40:55;100196.63;;;8.00;34.46
16331;BME280;8275;48.206;16.340;2023-03-01T02:43:30;100202.72;;;8.02;34.08
16331;BME280;8275;48.206;16.340;2023-03-01T02:46:06;100200.81;;;8.03;34.33
16331;BME280;8275;48.206;16.340;2023-03-01T02:48:41;100203.31;;;8.04;34.08
16331;BME280;8275;48.206;16.340;2023-03-01T02:54:13;100198.72;;;8.05;34.42
16331;BME280;8275;48.206;16.340;2023-03-01T02:56:44;100189.25;;;8.07;34.18
16331;BME280;8275;48.206;16.340;2023-03-01T02:59:18;100196.38;;;8.08;34.38
16331;BME280;8275;48.206;16.340;2023-03-01T03:01:49;100194.50;;;8.09;34.17
16331;BME280;8275;48.206;16.340;2023-03-01T03:04:18;100187.38;;;8.08;34.31
16331;BME280;8275;48.206;16.340;2023-03-01T03:06:50;100198.28;;;8.08;34.33
16331;BME280;8275;48.206;16.340;2023-03-01T03:09:19;100200.19;;;8.07;34.27
16331;BME280;8275;48.206;16.340;2023-03-01T03:11:48;100202.91;;;8.07;34.52
16331;BME280;8275;48.206;16.340;2023-03-01T03:14:17;100187.38;;;8.08;34.52
16331;BME280;8275;48.206;16.340;2023-03-01T03:16:49;100195.34;;;8.09;34.33
16331;BME280;8275;48.206;16.340;2023-03-01T03:19:19;100186.09;;;8.10;34.52
16331;BME280;8275;48.206;16.340;2023-03-01T03:21:47;100182.72;;;8.08;34.53
16331;BME280;8275;48.206;16.340;2023-03-01T03:24:16;100176.47;;;8.08;34.08
16331;BME280;8275;48.206;16.340;2023-03-01T03:26:45;100182.13;;;8.06;34.21
16331;BME280;8275;48.206;16.340;2023-03-01T03:29:13;100180.47;;;8.05;34.15
16331;BME280;8275;48.206;16.340;2023-03-01T03:31:42;100171.44;;;8.05;34.15
16331;BME280;8275;48.206;16.340;2023-03-01T03:34:12;100173.31;;;8.04;34.18
16331;BME280;8275;48.206;16.340;2023-03-01T03:36:45;100171.19;;;8.06;34.36
16331;BME280;8275;48.206;16.340;2023-03-01T03:39:13;100177.50;;;8.07;34.40
16331;BME280;8275;48.206;16.340;2023-03-01T03:41:42;100177.50;;;8.07;34.59
16331;BME280;8275;48.206;16.340;2023-03-01T03:44:10;100178.34;;;8.07;34.59
16331;BME280;8275;48.206;16.340;2023-03-01T03:46:38;100182.97;;;8.07;34.46
16331;BME280;8275;48.206;16.340;2023-03-01T03:49:07;100171.19;;;8.06;34.48
16331;BME280;8275;48.206;16.340;2023-03-01T03:51:37;100174.78;;;8.07;34.29
16331;BME280;8275;48.206;16.340;2023-03-01T03:54:05;100171.44;;;8.05;34.21
16331;BME280;8275;48.206;16.340;2023-03-01T03:56:34;100169.75;;;8.04;34.29
16331;BME280;8275;48.206;16.340;2023-03-01T03:59:02;100168.69;;;8.05;34.45
16331;BME280;8275;48.206;16.340;2023-03-01T04:01:31;100165.97;;;8.05;34.48
16331;BME280;8275;48.206;16.340;2023-03-01T04:03:59;100163.00;;;8.06;34.42
16331;BME280;8275;48.206;16.340;2023-03-01T04:06:31;100168.28;;;8.08;34.57
16331;BME280;8275;48.206;16.340;2023-03-01T04:09:01;100170.16;;;8.07;34.48
16331;BME280;8275;48.206;16.340;2023-03-01T04:11:30;100167.44;;;8.07;34.37
16331;BME280;8275;48.206;16.340;2023-03-01T04:13:58;100164.69;;;8.07;34.36
16331;BME280;8275;48.206;16.340;2023-03-01T04:16:27;100168.28;;;8.08;34.69
16331;BME280;8275;48.206;16.340;2023-03-01T04:18:56;100160.09;;;8.08;34.69
16331;BME280;8275;48.206;16.340;2023-03-01T04:21:26;100166.34;;;8.08;34.51
16331;BME280;8275;48.206;16.340;2023-03-01T04:23:55;100162.81;;;8.08;34.41
16331;BME280;8275;48.206;16.340;2023-03-01T04:26:25;100165.31;;;8.09;34.75
16331;BME280;8275;48.206;16.340;2023-03-01T04:28:54;100168.66;;;8.11;34.31
16331;BME280;8275;48.206;16.340;2023-03-01T04:31:22;100173.06;;;8.12;34.19
16331;BME280;8275;48.206;16.340;2023-03-01T04:33:53;100169.28;;;8.13;34.35
16331;BME280;8275;48.206;16.340;2023-03-01T04:36:25;100169.88;;;8.15;34.75
16331;BME280;8275;48.206;16.340;2023-03-01T04:38:55;100169.88;;;8.15;34.24
16331;BME280;8275;48.206;16.340;2023-03-01T04:41:26;100166.13;;;8.16;34.51
16331;BME280;8275;48.206;16.340;2023-03-01T04:43:55;100168.00;;;8.16;34.73
16331;BME280;8275;48.206;16.340;2023-03-01T04:46:23;100173.69;;;8.14;34.68
16331;BME280;8275;48.206;16.340;2023-03-01T04:48:52;100166.53;;;8.13;34.63
16331;BME280;8275;48.206;16.340;2023-03-01T04:51:21;100165.69;;;8.13;34.82
16331;BME280;8275;48.206;16.340;2023-03-01T04:53:49;100167.38;;;8.14;34.61
16331;BME280;8275;48.206;16.340;2023-03-01T04:56:18;100171.16;;;8.13;34.72
16331;BME280;8275;48.206;16.340;2023-03-01T04:58:48;100172.22;;;8.12;34.47
16331;BME280;8275;48.206;16.340;2023-03-01T05:01:18;100174.97;;;8.12;34.43
16331;BME280;8275;48.206;16.340;2023-03-01T05:03:49;100169.09;;;8.08;34.78
16331;BME280;8275;48.206;16.340;2023-03-01T05:06:19;100176.88;;;8.05;34.58
16331;BME280;8275;48.206;16.340;2023-03-01T05:08:48;100179.84;;;8.03;34.87
16331;BME280;8275;48.206;16.340;2023-03-01T05:11:16;100190.75;;;8.03;34.74
16331;BME280;8275;48.206;16.340;2023-03-01T05:13:46;100187.19;;;8.03;34.79
16331;BME280;8275;48.206;16.340;2023-03-01T05:16:16;100189.06;;;8.02;34.61
16331;BME280;8275;48.206;16.340;2023-03-01T05:18:47;100191.56;;;8.04;34.86
16331;BME280;8275;48.206;16.340;2023-03-01T05:21:17;100189.91;;;8.03;34.82
16331;BME280;8275;48.206;16.340;2023-03-01T05:23:46;100181.72;;;8.03;34.54
16331;BME280;8275;48.206;16.340;2023-03-01T05:26:16;100186.34;;;8.02;34.71
16331;BME280;8275;48.206;16.340;2023-03-01T05:28:56;100184.88;;;8.00;34.97
16331;BME280;8275;48.206;16.340;2023-03-01T05:31:26;100189.94;;;7.96;34.75
16331;BME280;8275;48.206;16.340;2023-03-01T05:33:55;100195.59;;;7.95;34.79
16331;BME280;8275;48.206;16.340;2023-03-01T05:36:23;100198.34;;;7.95;35.01
16331;BME280;8275;48.206;16.340;2023-03-01T05:38:52;100196.69;;;7.94;35.09
16331;BME280;8275;48.206;16.340;2023-03-01T05:41:20;100199.19;;;7.95;35.03
16331;BME280;8275;48.206;16.340;2023-03-01T05:43:49;100200.03;;;7.96;34.78
16331;BME280;8275;48.206;16.340;2023-03-01T05:46:19;100201.69;;;7.97;34.79
16331;BME280;8275;48.206;16.340;2023-03-01T05:48:47;100201.47;;;7.98;34.89
16331;BME280;8275;48.206;16.340;2023-03-01T05:51:16;100205.06;;;7.99;34.75
16331;BME280;8275;48.206;16.340;2023-03-01T05:53:45;100204.22;;;7.98;34.97
16331;BME280;8275;48.206;16.340;2023-03-01T05:56:14;100208.59;;;7.99;35.00
16331;BME280;8275;48.206;16.340;2023-03-01T05:58:42;100211.13;;;8.01;35.16
16331;BME280;8275;48.206;16.340;2023-03-01T06:01:12;100202.72;;;8.02;35.00
16331;BME280;8275;48.206;16.340;2023-03-01T06:03:42;100213.41;;;8.04;34.88
16331;BME280;8275;48.206;16.340;2023-03-01T06:06:10;100204.78;;;8.07;35.23
16331;BME280;8275;48.206;16.340;2023-03-01T06:08:39;100211.47;;;8.11;35.14
16331;BME280;8275;48.206;16.340;2023-03-01T06:11:07;100214.41;;;8.16;35.11
16331;BME280;8275;48.206;16.340;2023-03-01T06:13:36;100217.53;;;8.19;35.05
16331;BME280;8275;48.206;16.340;2023-03-01T06:16:06;100213.09;;;8.25;35.19
16331;BME280;8275;48.206;16.340;2023-03-01T06:18:34;100221.50;;;8.30;35.19
16331;BME280;8275;48.206;16.340;2023-03-01T06:21:05;100209.91;;;8.34;35.04
16331;BME280;8275;48.206;16.340;2023-03-01T06:23:33;100210.94;;;8.40;34.99
16331;BME280;8275;48.206;16.340;2023-03-01T06:26:06;100203.97;;;8.44;34.98
16331;BME280;8275;48.206;16.340;2023-03-01T06:28:36;100203.09;;;8.50;34.92
16331;BME280;8275;48.206;16.340;2023-03-01T06:31:05;100206.25;;;8.54;34.85
16331;BME280;8275;48.206;16.340;2023-03-01T06:33:36;100200.13;;;8.58;34.94
16331;BME280;8275;48.206;16.340;2023-03-01T06:36:07;100203.03;;;8.63;34.91
16331;BME280;8275;48.206;16.340;2023-03-01T06:38:37;100209.47;;;8.69;34.87
16331;BME280;8275;48.206;16.340;2023-03-01T06:41:07;100208.81;;;8.73;35.11
16331;BME280;8275;48.206;16.340;2023-03-01T06:43:36;100215.06;;;8.80;35.02
16331;BME280;8275;48.206;16.340;2023-03-01T06:46:05;100214.19;;;8.86;34.94
16331;BME280;8275;48.206;16.340;2023-03-01T06:48:35;100216.03;;;8.92;34.81
16331;BME280;8275;48.206;16.340;2023-03-01T06:51:05;100219.97;;;8.96;34.90
16331;BME280;8275;48.206;16.340;2023-03-01T06:53:33;100226.47;;;9.02;34.77
16331;BME280;8275;48.206;16.340;2023-03-01T06:56:02;100216.97;;;9.04;34.72
16331;BME280;8275;48.206;16.340;2023-03-01T06:58:31;100221.97;;;9.07;34.61
16331;BME280;8275;48.206;16.340;2023-03-01T07:00:59;100220.69;;;9.10;34.86
16331;BME280;8275;48.206;16.340;2023-03-01T07:03:30;100217.28;;;9.14;34.67
16331;BME280;8275;48.206;16.340;2023-03-01T07:05:57;100221.47;;;9.17;34.60
16331;BME280;8275;48.206;16.340;2023-03-01T07:08:27;100218.31;;;9.20;34.49
16331;BME280;8275;48.206;16.340;2023-03-01T07:10:56;100215.56;;;9.20;34.62
16331;BME280;8275;48.206;16.340;2023-03-01T07:13:25;100212.59;;;9.22;34.67
16331;BME280;8275;48.206;16.340;2023-03-01T07:15:53;100213.44;;;9.22;34.40
16331;BME280;8275;48.206;16.340;2023-03-01T07:18:22;100205.84;;;9.24;34.62
16331;BME280;8275;48.206;16.340;2023-03-01T07:20:50;100210.28;;;9.25;34.57
16331;BME280;8275;48.206;16.340;2023-03-01T07:23:19;100216.34;;;9.27;34.58
16331;BME280;8275;48.206;16.340;2023-03-01T07:25:53;100218.63;;;9.30;34.56
16331;BME280;8275;48.206;16.340;2023-03-01T07:28:23;100212.25;;;9.36;34.52
16331;BME280;8275;48.206;16.340;2023-03-01T07:30:52;100207.78;;;9.42;34.40
16331;BME280;8275;48.206;16.340;2023-03-01T07:33:21;100209.38;;;9.49;34.59
16331;BME280;8275;48.206;16.340;2023-03-01T07:35:56;100204.91;;;9.55;34.52
16331;BME280;8275;48.206;16.340;2023-03-01T07:38:26;100209.03;;;9.64;34.22
16331;BME280;8275;48.206;16.340;2023-03-01T07:40:58;100204.31;;;9.71;34.29
16331;BME280;8275;48.206;16.340;2023-03-01T07:43:29;100195.56;;;9.80;34.40
16331;BME280;8275;48.206;16.340;2023-03-01T07:45:59;100197.16;;;9.88;34.51
16331;BME280;8275;48.206;16.340;2023-03-01T07:48:30;100195.75;;;9.97;34.10
16331;BME280;8275;48.206;16.340;2023-03-01T07:50:59;100198.81;;;10.07;34.27
16331;BME280;8275;48.206;16.340;2023-03-01T07:53:28;100194.97;;;10.15;33.91
16331;BME280;8275;48.206;16.340;2023-03-01T07:56:03;100195.31;;;10.18;34.11
16331;BME280;8275;48.206;16.340;2023-03-01T07:58:34;100199.88;;;10.24;34.09
16331;BME280;8275;48.206;16.340;2023-03-01T08:01:04;100201.09;;;10.28;34.22
16331;BME280;8275;48.206;16.340;2023-03-01T08:03:33;100193.63;;;10.35;33.94
16331;BME280;8275;48.206;16.340;2023-03-01T08:06:03;100197.25;;;10.47;33.85
16331;BME280;8275;48.206;16.340;2023-03-01T08:08:33;100192.84;;;10.58;34.14
16331;BME280;8275;48.206;16.340;2023-03-01T08:11:05;100193.47;;;10.72;33.68
16331;BME280;8275;48.206;16.340;2023-03-01T08:13:34;100196.25;;;10.83;33.92
16331;BME280;8275;48.206;16.340;2023-03-01T08:16:05;100200.06;;;10.94;33.55
16331;BME280;8275;48.206;16.340;2023-03-01T08:18:35;100199.28;;;11.05;33.68
16331;BME280;8275;48.206;16.340;2023-03-01T08:21:04;100194.84;;;11.15;33.61
16331;BME280;8275;48.206;16.340;2023-03-01T08:23:34;100187.47;;;11.27;33.29
16331;BME280;8275;48.206;16.340;2023-03-01T08:26:10;100186.03;;;11.48;32.58
16331;BME280;8275;48.206;16.340;2023-03-01T08:28:40;100188.28;;;11.51;32.47
16331;BME280;8275;48.206;16.340;2023-03-01T08:31:17;100187.69;;;11.49;32.97
16331;BME280;8275;48.206;16.340;2023-03-01T08:33:47;100190.22;;;11.51;32.94
16331;BME280;8275;48.206;16.340;2023-03-01T08:36:18;100182.91;;;11.56;32.86
16331;BME280;8275;48.206;16.340;2023-03-01T08:38:48;100177.66;;;11.66;33.09
16331;BME280;8275;48.206;16.340;2023-03-01T08:41:18;100181.13;;;11.73;32.74
16331;BME280;8275;48.206;16.340;2023-03-01T08:43:47;100178.59;;;11.83;32.56
16331;BME280;8275;48.206;16.340;2023-03-01T08:46:16;100176.66;;;11.95;32.60
16331;BME280;8275;48.206;16.340;2023-03-01T08:48:44;100174.97;;;12.06;32.21
16331;BME280;8275;48.206;16.340;2023-03-01T08:51:15;100164.16;;;12.16;32.13
16331;BME280;8275;48.206;16.340;2023-03-01T08:53:44;100160.47;;;12.22;31.98
16331;BME280;8275;48.206;16.340;2023-03-01T08:56:14;100158.28;;;12.24;32.09
16331;BME280;8275;48.206;16.340;2023-03-01T08:58:46;100156.28;;;12.20;31.75
16331;BME280;8275;48.206;16.340;2023-03-01T09:01:17;100159.78;;;12.15;31.93
16331;BME280;8275;48.206;16.340;2023-03-01T09:03:47;100155.91;;;12.16;31.87
16331;BME280;8275;48.206;16.340;2023-03-01T09:06:16;100153.28;;;12.21;31.81
16331;BME280;8275;48.206;16.340;2023-03-01T09:08:46;100147.53;;;12.23;32.01
16331;BME280;8275;48.206;16.340;2023-03-01T09:11:19;100147.31;;;12.24;32.02
16331;BME280;8275;48.206;16.340;2023-03-01T09:13:50;100144.19;;;12.21;31.88
16331;BME280;8275;48.206;16.340;2023-03-01T09:16:21;100140.13;;;12.23;31.82
16331;BME280;8275;48.206;16.340;2023-03-01T09:18:51;100141.84;;;12.41;31.98
16331;BME280;8275;48.206;16.340;2023-03-01T09:21:22;100140.31;;;12.61;31.92
16331;BME280;8275;48.206;16.340;2023-03-01T09:24:12;100140.53;;;12.77;31.66
16331;BME280;8275;48.206;16.340;2023-03-01T09:26:41;100134.03;;;12.83;31.63
16331;BME280;8275;48.206;16.340;2023-03-01T09:29:11;100119.81;;;12.86;31.49
16331;BME280;8275;48.206;16.340;2023-03-01T09:31:40;100121.72;;;12.85;31.55
16331;BME280;8275;48.206;16.340;2023-03-01T09:34:10;100116.56;;;12.89;31.02
16331;BME280;8275;48.206;16.340;2023-03-01T09:36:38;100112.38;;;12.86;31.26
16331;BME280;8275;48.206;16.340;2023-03-01T09:39:07;100118.13;;;12.85;31.25
16331;BME280;8275;48.206;16.340;2023-03-01T09:41:46;100115.72;;;12.88;31.21
16331;BME280;8275;48.206;16.340;2023-03-01T09:44:29;100121.38;;;12.98;31.02
16331;BME280;8275;48.206;16.340;2023-03-01T09:46:59;100119.78;;;13.02;31.13
16331;BME280;8275;48.206;16.340;2023-03-01T09:49:31;100109.13;;;13.06;31.35
16331;BME280;8275;48.206;16.340;2023-03-01T09:52:12;100102.66;;;13.12;31.36
16331;BME280;8275;48.206;16.340;2023-03-01T09:54:52;100108.53;;;13.20;31.14
16331;BME280;8275;48.206;16.340;2023-03-01T09:57:33;100104.84;;;13.31;31.04
16331;BME280;8275;48.206;16.340;2023-03-01T10:00:29;100097.88;;;13.46;31.16
16331;BME280;8275;48.206;16.340;2023-03-01T10:03:12;100099.94;;;13.55;30.89
16331;BME280;8275;48.206;16.340;2023-03-01T10:05:53;100093.66;;;13.60;30.98
16331;BME280;8275;48.206;16.340;2023-03-01T10:08:30;100092.91;;;13.64;30.84
16331;BME280;8275;48.206;16.340;2023-03-01T10:11:04;100090.22;;;13.69;30.73
16331;BME280;8275;48.206;16.340;2023-03-01T10:13:49;100090.78;;;13.71;30.68
16331;BME280;8275;48.206;16.340;2023-03-01T10:16:28;100084.00;;;13.79;30.60
16331;BME280;8275;48.206;16.340;2023-03-01T10:19:04;100068.53;;;13.99;30.62
16331;BME280;8275;48.206;16.340;2023-03-01T10:21:38;100072.91;;;14.22;30.42
16331;BME280;8275;48.206;16.340;2023-03-01T10:24:13;100066.78;;;14.42;30.16
16331;BME280;8275;48.206;16.340;2023-03-01T10:26:53;100069.13;;;14.60;29.89
16331;BME280;8275;48.206;16.340;2023-03-01T10:29:26;100070.91;;;14.71;29.77
16331;BME280;8275;48.206;16.340;2023-03-01T10:31:59;100065.41;;;14.76;29.82
16331;BME280;8275;48.206;16.340;2023-03-01T10:34:30;100061.03;;;14.80;29.74
16331;BME280;8275;48.206;16.340;2023-03-01T10:37:12;100055.31;;;14.92;29.48
16331;BME280;8275;48.206;16.340;2023-03-01T10:40:00;100047.38;;;15.00;29.45
16331;BME280;8275;48.206;16.340;2023-03-01T10:42:35;100037.25;;;15.16;29.29
16331;BME280;8275;48.206;16.340;2023-03-01T10:45:31;100036.44;;;15.20;28.92
16331;BME280;8275;48.206;16.340;2023-03-01T10:48:11;100035.34;;;15.16;28.82
16331;BME280;8275;48.206;16.340;2023-03-01T10:50:43;100036.97;;;15.12;28.87
16331;BME280;8275;48.206;16.340;2023-03-01T10:53:25;100026.78;;;15.18;28.74
16331;BME280;8275;48.206;16.340;2023-03-01T10:56:03;100021.88;;;15.30;28.82
16331;BME280;8275;48.206;16.340;2023-03-01T10:58:34;100012.06;;;15.49;28.60
16331;BME280;8275;48.206;16.340;2023-03-01T11:01:05;100009.41;;;15.79;28.65
16331;BME280;8275;48.206;16.340;2023-03-01T11:03:38;100012.75;;;16.16;28.40
16331;BME280;8275;48.206;16.340;2023-03-01T11:06:21;100002.84;;;16.56;28.13
16331;BME280;8275;48.206;16.340;2023-03-01T11:08:50;99998.38;;;16.95;27.83
16331;BME280;8275;48.206;16.340;2023-03-01T11:11:28;99994.34;;;17.36;27.43
16331;BME280;8275;48.206;16.340;2023-03-01T11:14:03;99984.03;;;17.62;27.19
16331;BME280;8275;48.206;16.340;2023-03-01T11:16:59;99978.88;;;17.89;26.97
16331;BME280;8275;48.206;16.340;2023-03-01T11:19:31;99974.84;;;18.10;26.79
16331;BME280;8275;48.206;16.340;2023-03-01T11:22:04;99970.88;;;18.21;26.34
16331;BME280;8275;48.206;16.340;2023-03-01T11:24:46;99967.53;;;18.24;26.48
16331;BME280;8275;48.206;16.340;2023-03-01T11:27:32;99973.03;;;18.30;26.26
16331;BME280;8275;48.206;16.340;2023-03-01T11:30:06;99969.13;;;18.31;26.16
16331;BME280;8275;48.206;16.340;2023-03-01T11:32:43;99965.59;;;18.25;26.07
16331;BME280;8275;48.206;16.340;2023-03-01T11:35:19;99975.13;;;18.14;25.85
16331;BME280;8275;48.206;16.340;2023-03-01T11:38:02;99972.13;;;18.00;26.18
16331;BME280;8275;48.206;16.340;2023-03-01T11:40:39;99961.13;;;17.90;26.29
16331;BME280;8275;48.206;16.340;2023-03-01T11:43:16;99973.09;;;17.81;26.27
16331;BME280;8275;48.206;16.340;2023-03-01T11:46:33;99968.00;;;17.54;26.37
16331;BME280;8275;48.206;16.340;2023-03-01T11:52:19;99970.78;;;17.44;26.48
16331;BME280;8275;48.206;16.340;2023-03-01T11:55:07;99979.34;;;17.47;26.60
16331;BME280;8275;48.206;16.340;2023-03-01T11:57:58;99973.00;;;17.47;26.37
16331;BME280;8275;48.206;16.340;2023-03-01T12:00:44;99973.03;;;17.32;26.38
16331;BME280;8275;48.206;16.340;2023-03-01T12:03:33;99969.53;;;17.11;26.44
16331;BME280;8275;48.206;16.340;2023-03-01T12:06:37;99966.97;;;17.30;26.71
16331;BME280;8275;48.206;16.340;2023-03-01T12:09:27;99958.66;;;17.89;26.43
16331;BME280;8275;48.206;16.340;2023-03-01T12:12:24;99963.66;;;18.59;26.23
16331;BME280;8275;48.206;16.340;2023-03-01T12:18:51;99956.56;;;19.01;25.54
16331;BME280;8275;48.206;16.340;2023-03-01T12:21:35;99954.34;;;18.98;25.21
16331;BME280;8275;48.206;16.340;2023-03-01T12:24:56;99958.16;;;18.83;25.33
16331;BME280;8275;48.206;16.340;2023-03-01T12:28:18;99945.09;;;18.55;25.59
16331;BME280;8275;48.206;16.340;2023-03-01T12:37:20;99935.16;;;18.15;25.84
16331;BME280;8275;48.206;16.340;2023-03-01T12:43:13;99943.50;;;18.10;25.76
16331;BME280;8275;48.206;16.340;2023-03-01T12:45:58;99936.59;;;18.07;25.87
16331;BME280;8275;48.206;16.340;2023-03-01T12:48:43;99933.28;;;18.05;25.89
16331;BME280;8275;48.206;16.340;2023-03-01T12:51:18;99928.56;;;18.06;25.72
16331;BME280;8275;48.206;16.340;2023-03-01T12:53:51;99930.47;;;18.10;25.75
16331;BME280;8275;48.206;16.340;2023-03-01T12:56:24;99925.50;;;18.07;25.71
16331;BME280;8275;48.206;16.340;2023-03-01T12:59:02;99916.31;;;18.12;25.92
16331;BME280;8275;48.206;16.340;2023-03-01T13:01:43;99916.03;;;18.42;25.67
16331;BME280;8275;48.206;16.340;2023-03-01T13:04:27;99905.31;;;19.12;25.63
16331;BME280;8275;48.206;16.340;2023-03-01T13:07:16;99901.47;;;20.24;24.99
16331;BME280;8275;48.206;16.340;2023-03-01T13:09:54;99896.16;;;21.15;24.47
16331;BME280;8275;48.206;16.340;2023-03-01T13:12:52;99884.88;;;21.69;24.17
16331;BME280;8275;48.206;16.340;2023-03-01T13:15:34;99888.81;;;21.68;22.34
16331;BME280;8275;48.206;16.340;2023-03-01T13:18:27;99888.91;;;21.41;23.11
16331;BME280;8275;48.206;16.340;2023-03-01T13:20:59;99897.25;;;21.14;22.46
16331;BME280;8275;48.206;16.340;2023-03-01T13:23:34;99888.28;;;20.89;22.95
16331;BME280;8275;48.206;16.340;2023-03-01T13:26:15;99887.53;;;20.70;23.56
16331;BME280;8275;48.206;16.340;2023-03-01T13:29:03;99899.06;;;20.50;23.58
16331;BME280;8275;48.206;16.340;2023-03-01T13:31:58;99894.09;;;20.47;22.61
16331;BME280;8275;48.206;16.340;2023-03-01T13:34:54;99886.09;;;20.59;23.18
16331;BME280;8275;48.206;16.340;2023-03-01T13:37:35;99880.44;;;20.91;23.32
16331;BME280;8275;48.206;16.340;2023-03-01T13:40:58;99867.28;;;21.82;22.96
16331;BME280;8275;48.206;16.340;2023-03-01T13:43:31;99857.34;;;22.34;22.85
16331;BME280;8275;48.206;16.340;2023-03-01T13:46:07;99856.84;;;22.32;22.40
16331;BME280;8275;48.206;16.340;2023-03-01T13:48:36;99861.38;;;21.97;22.36
16331;BME280;8275;48.206;16.340;2023-03-01T13:51:08;99863.41;;;21.69;22.48